Time;durP1;ratioP1;P1;durP2;ratioP2;P2;SDS_P1;SDS_P2;PMS_P1;PMS_P2;Temp;Humidity;BMP_temperature;BMP_pressure;BME280_temperature;BME280_humidity;BME280_pressure;Samples;Min_cycle;Max_cycle;Signal;HPM_P1;HPM_P2
2023/09/13 00:00:54;;;;;;;;;;;;;;;23.62;54.44;99559.69;1083817;54;19973;-78
2023/09/13 00:02:00;;;;;;;;;;;;;;;23.59;55.14;99560.19;1083715;47;20001;-78
2023/09/13 00:03:00;;;;;;;;;;;;;;;23.55;55.07;99559.03;1083724;54;19950;-78
2023/09/13 00:04:03;;;;;;;;;;;;;;;23.40;56.19;99566.88;1083954;39;20465;-78
2023/09/13 00:05:05;;;;;;;;;;;;;;;23.40;55.86;99559.53;1083785;47;19947;-79
2023/09/13 00:06:05;;;;;;;;;;;;;;;23.44;55.98;99557.16;1083704;47;19947;-79
2023/09/13 00:07:08;;;;;;;;;;;;;;;23.42;55.92;99559.28;1084322;39;20789;-78
2023/09/13 00:08:09;;;;;;;;;;;;;;;23.38;56.45;99569.03;1083246;47;19946;-78
2023/09/13 00:09:13;;;;;;;;;;;;;;;23.42;56.63;99576.50;1083596;54;19947;-79
2023/09/13 00:10:14;;;;;;;;;;;;;;;23.37;56.42;99568.19;1083734;47;19971;-79
2023/09/13 00:11:17;;;;;;;;;;;;;;;23.34;57.09;99574.13;1084046;54;20001;-78
2023/09/13 00:12:18;;;;;;;;;;;;;;;23.41;56.66;99576.72;1084573;39;20450;-78
2023/09/13 00:13:21;;;;;;;;;;;;;;;23.41;56.78;99580.28;1083926;47;19970;-79
2023/09/13 00:14:22;;;;;;;;;;;;;;;23.40;56.85;99581.34;1083619;54;19947;-80
2023/09/13 00:15:25;;;;;;;;;;;;;;;23.37;56.69;99584.56;1083451;47;19958;-78
2023/09/13 00:16:26;;;;;;;;;;;;;;;23.35;57.29;99592.13;1083666;54;19970;-78
2023/09/13 00:17:33;;;;;;;;;;;;;;;23.19;57.98;99586.38;1083998;54;19989;-79
2023/09/13 00:18:33;;;;;;;;;;;;;;;23.21;57.93;99592.41;1085804;31;20598;-78
2023/09/13 00:19:37;;;;;;;;;;;;;;;23.12;58.54;99595.69;1084135;54;19953;-78
2023/09/13 00:20:40;;;;;;;;;;;;;;;23.14;58.48;99597.16;1083491;47;19953;-78
2023/09/13 00:21:42;;;;;;;;;;;;;;;23.03;58.77;99598.78;1083886;47;19950;-78
2023/09/13 00:22:46;;;;;;;;;;;;;;;23.05;59.02;99593.09;1083756;47;19950;-79
2023/09/13 00:23:47;;;;;;;;;;;;;;;23.05;59.23;99593.09;1083679;54;19958;-78
2023/09/13 00:24:50;;;;;;;;;;;;;;;23.06;58.87;99595.59;1083893;54;19950;-79
2023/09/13 00:25:51;;;;;;;;;;;;;;;23.04;59.02;99596.91;1084515;54;20104;-78
2023/09/13 00:26:54;;;;;;;;;;;;;;;22.90;59.39;99601.78;1085284;39;20676;-78
2023/09/13 00:27:55;;;;;;;;;;;;;;;22.86;59.78;99604.13;1084203;54;19950;-78
2023/09/13 00:28:58;;;;;;;;;;;;;;;22.93;59.60;99605.91;1084494;54;20431;-78
2023/09/13 00:29:59;;;;;;;;;;;;;;;22.86;60.01;99606.84;1084100;54;19947;-78
2023/09/13 00:31:02;;;;;;;;;;;;;;;22.80;59.93;99607.00;1082485;54;19947;-77
2023/09/13 00:32:03;;;;;;;;;;;;;;;22.84;59.76;99606.28;1081831;47;19951;-77
2023/09/13 00:33:09;;;;;;;;;;;;;;;22.86;59.79;99609.56;1082201;39;20405;-78
2023/09/13 00:34:09;;;;;;;;;;;;;;;22.90;59.64;99616.22;1082685;54;19963;-79
2023/09/13 00:35:13;;;;;;;;;;;;;;;22.93;59.50;99616.81;1082520;54;19947;-77
2023/09/13 00:36:13;;;;;;;;;;;;;;;23.00;59.24;99612.06;1082808;54;19972;-77
2023/09/13 00:37:16;;;;;;;;;;;;;;;22.84;59.81;99609.00;1081919;47;19954;-78
2023/09/13 00:38:17;;;;;;;;;;;;;;;22.88;59.54;99618.34;1082086;47;19974;-78
2023/09/13 00:39:20;;;;;;;;;;;;;;;22.85;59.52;99612.53;1082657;54;19963;-78
2023/09/13 00:40:21;;;;;;;;;;;;;;;22.82;59.68;99622.03;1082519;54;19981;-77
2023/09/13 00:41:26;;;;;;;;;;;;;;;22.83;59.60;99618.25;1082051;47;20086;-78
2023/09/13 00:42:28;;;;;;;;;;;;;;;22.82;59.59;99613.84;1081939;54;19950;-78
2023/09/13 00:43:31;;;;;;;;;;;;;;;22.83;59.42;99611.94;1081952;54;19970;-76
2023/09/13 00:44:32;;;;;;;;;;;;;;;22.85;59.59;99607.94;1081953;47;19950;-78
2023/09/13 00:45:36;;;;;;;;;;;;;;;22.81;59.55;99604.00;1081657;47;20034;-78
2023/09/13 00:46:37;;;;;;;;;;;;;;;22.81;59.47;99604.00;1081993;54;19968;-78
2023/09/13 00:47:41;;;;;;;;;;;;;;;22.83;59.42;99612.78;1083191;47;19973;-78
2023/09/13 00:48:44;;;;;;;;;;;;;;;22.93;59.00;99611.38;1082183;47;20444;-79
2023/09/13 00:49:49;;;;;;;;;;;;;;;22.94;59.18;99602.13;1082404;54;19954;-78
2023/09/13 00:50:50;;;;;;;;;;;;;;;22.96;59.20;99594.53;1082133;46;19950;-79
2023/09/13 00:51:51;;;;;;;;;;;;;;;22.94;59.15;99608.41;1082680;54;19954;-79
2023/09/13 00:52:54;;;;;;;;;;;;;;;22.95;59.10;99601.06;1083419;54;20038;-78
2023/09/13 00:53:55;;;;;;;;;;;;;;;22.95;58.72;99599.16;1084711;47;19961;-78
2023/09/13 00:54:56;;;;;;;;;;;;;;;22.92;59.65;99609.72;1085611;47;19950;-78
2023/09/13 00:56:08;;;;;;;;;;;;;;;22.92;58.88;99604.25;1085750;54;20005;-79
2023/09/13 00:57:10;;;;;;;;;;;;;;;23.00;58.95;99596.53;1085466;47;19947;-78
2023/09/13 00:58:15;;;;;;;;;;;;;;;23.03;59.03;99597.97;1085302;47;20042;-77
2023/09/13 00:59:16;;;;;;;;;;;;;;;23.05;58.91;99598.53;1085287;47;19994;-78
2023/09/13 01:00:22;;;;;;;;;;;;;;;23.05;58.86;99598.53;1085623;54;20019;-80
2023/09/13 01:01:37;;;;;;;;;;;;;;;23.01;58.96;99600.09;1085742;47;19970;-80
2023/09/13 01:02:44;;;;;;;;;;;;;;;23.10;58.65;99601.41;1086191;54;19945;-80
2023/09/13 01:04:00;;;;;;;;;;;;;;;23.14;58.46;99593.56;1086033;47;19947;-80
2023/09/13 01:05:03;;;;;;;;;;;;;;;23.16;58.66;99592.25;1085443;47;19950;-79
2023/09/13 01:06:05;;;;;;;;;;;;;;;23.17;58.99;99588.47;1085715;54;19938;-78
2023/09/13 01:07:09;;;;;;;;;;;;;;;23.12;59.09;99588.38;1085173;54;19946;-79
2023/09/13 01:08:09;;;;;;;;;;;;;;;23.11;58.98;99581.25;1084672;47;19950;-78
2023/09/13 01:09:14;;;;;;;;;;;;;;;23.15;58.96;99585.16;1083834;46;19950;-80
2023/09/13 01:10:14;;;;;;;;;;;;;;;23.10;58.86;99578.75;1082287;54;19946;-77
2023/09/13 01:11:18;;;;;;;;;;;;;;;22.99;59.40;99583.16;1082187;54;19946;-78
2023/09/13 01:12:18;;;;;;;;;;;;;;;22.96;59.73;99589.91;1082296;46;21344;-78
2023/09/13 01:13:22;;;;;;;;;;;;;;;22.94;59.57;99580.34;1082653;47;19957;-76
2023/09/13 01:14:25;;;;;;;;;;;;;;;22.90;59.74;99579.97;1082231;47;20562;-79
2023/09/13 01:15:28;;;;;;;;;;;;;;;22.93;59.85;99584.13;1082741;47;19993;-80
2023/09/13 01:16:34;;;;;;;;;;;;;;;22.99;59.23;99584.00;1082339;47;19946;-78
2023/09/13 01:17:41;;;;;;;;;;;;;;;22.99;59.38;99584.00;1082509;47;20034;-79
2023/09/13 01:18:45;;;;;;;;;;;;;;;22.87;59.87;99580.44;1083109;47;19946;-80
2023/09/13 01:19:55;;;;;;;;;;;;;;;22.86;60.04;99576.06;1081802;47;20075;-76
2023/09/13 01:21:08;;;;;;;;;;;;;;;22.96;59.56;99573.56;1082182;39;20382;-78
2023/09/13 01:22:22;;;;;;;;;;;;;;;22.97;59.42;99568.94;1081830;47;19947;-79
2023/09/13 01:23:34;;;;;;;;;;;;;;;22.93;59.62;99570.50;1081241;47;20425;-78
2023/09/13 01:24:54;;;;;;;;;;;;;;;23.02;59.11;99566.34;1081923;47;19951;-78
2023/09/13 01:26:16;;;;;;;;;;;;;;;22.94;59.46;99562.06;1082507;47;19969;-78
2023/09/13 01:27:25;;;;;;;;;;;;;;;23.00;59.34;99563.81;1082627;54;19958;-80
2023/09/13 01:28:38;;;;;;;;;;;;;;;23.01;59.03;99564.69;1083218;39;20670;-79
2023/09/13 01:29:42;;;;;;;;;;;;;;;22.94;59.70;99563.97;1082132;54;19951;-78
2023/09/13 01:30:43;;;;;;;;;;;;;;;22.90;59.71;99561.72;1082167;47;19992;-78
2023/09/13 01:31:46;;;;;;;;;;;;;;;22.88;59.76;99554.84;1082380;51;19950;-78
2023/09/13 01:32:47;;;;;;;;;;;;;;;22.93;59.87;99556.88;1082362;54;19974;-79
2023/09/13 01:33:51;;;;;;;;;;;;;;;22.93;59.60;99562.31;1082955;54;20610;-78
2023/09/13 01:34:52;;;;;;;;;;;;;;;22.94;60.30;99548.44;1082509;47;19946;-79
2023/09/13 01:35:55;;;;;;;;;;;;;;;22.93;60.00;99544.06;1082383;47;19950;-81
2023/09/13 01:36:56;;;;;;;;;;;;;;;22.94;60.13;99544.91;1082861;47;19970;-78
2023/09/13 01:37:59;;;;;;;;;;;;;;;22.94;60.28;99542.19;1082540;47;19958;-81
2023/09/13 01:39:01;;;;;;;;;;;;;;;22.95;60.56;99543.84;1082655;47;19951;-79
2023/09/13 01:40:08;;;;;;;;;;;;;;;22.93;60.68;99541.34;1082161;54;19954;-79
2023/09/13 01:41:13;;;;;;;;;;;;;;;22.92;60.90;99538.84;1082293;54;20069;-79
2023/09/13 01:42:17;;;;;;;;;;;;;;;22.88;60.93;99536.59;1082471;54;20021;-79
2023/09/13 01:43:18;;;;;;;;;;;;;;;22.86;61.38;99536.00;1082366;54;19947;-79
2023/09/13 01:44:24;;;;;;;;;;;;;;;22.86;61.05;99536.00;1082090;47;20729;-79
2023/09/13 01:45:25;;;;;;;;;;;;;;;22.84;61.55;99529.13;1081848;54;19947;-79
2023/09/13 01:46:33;;;;;;;;;;;;;;;22.82;61.14;99532.13;1082330;54;19958;-79
2023/09/13 01:47:34;;;;;;;;;;;;;;;22.77;61.72;99531.97;1082207;47;19963;-78
2023/09/13 01:48:38;;;;;;;;;;;;;;;22.74;61.80;99537.94;1082171;47;19953;-79
2023/09/13 01:49:41;;;;;;;;;;;;;;;22.70;61.95;99536.72;1081803;47;19946;-79
2023/09/13 01:50:44;;;;;;;;;;;;;;;22.67;61.92;99537.22;1081814;47;20437;-79
2023/09/13 01:51:45;;;;;;;;;;;;;;;22.63;62.02;99538.75;1081869;47;19946;-76
2023/09/13 01:52:48;;;;;;;;;;;;;;;22.63;62.18;99527.84;1081851;47;20076;-77
2023/09/13 01:53:49;;;;;;;;;;;;;;;22.64;62.07;99535.78;1082598;39;20373;-79
2023/09/13 01:54:52;;;;;;;;;;;;;;;22.63;61.90;99536.84;1082582;54;19971;-78
2023/09/13 01:55:53;;;;;;;;;;;;;;;22.58;62.61;99532.09;1081895;47;19947;-78
2023/09/13 01:56:56;;;;;;;;;;;;;;;22.57;62.38;99530.47;1081937;47;19998;-79
2023/09/13 01:57:57;;;;;;;;;;;;;;;22.55;62.36;99529.88;1082678;54;19947;-79
2023/09/13 01:59:00;;;;;;;;;;;;;;;22.47;62.90;99538.41;1082598;54;19997;-79
2023/09/13 02:00:04;;;;;;;;;;;;;;;22.43;63.27;99545.38;1082501;54;19946;-76
2023/09/13 02:01:07;;;;;;;;;;;;;;;22.42;63.50;99544.56;1081761;47;19970;-77
2023/09/13 02:02:08;;;;;;;;;;;;;;;22.36;63.93;99550.06;1082386;54;19969;-79
2023/09/13 02:03:12;;;;;;;;;;;;;;;22.31;64.38;99553.50;1081812;47;20050;-78
2023/09/13 02:04:12;;;;;;;;;;;;;;;22.29;64.67;99556.44;1082634;47;20534;-79
2023/09/13 02:05:16;;;;;;;;;;;;;;;22.27;64.89;99564.03;1081978;54;19946;-79
2023/09/13 02:06:19;;;;;;;;;;;;;;;22.21;65.20;99559.50;1082477;54;19947;-77
2023/09/13 02:07:23;;;;;;;;;;;;;;;22.16;65.23;99564.81;1082611;47;20033;-77
2023/09/13 02:08:24;;;;;;;;;;;;;;;22.17;65.52;99563.78;1082717;54;20485;-80
2023/09/13 02:09:24;;;;;;;;;;;;;;;22.13;66.08;99570.72;1082608;54;20065;-78
2023/09/13 02:10:27;;;;;;;;;;;;;;;22.09;65.64;99569.56;1082425;54;19950;-77
2023/09/13 02:11:28;;;;;;;;;;;;;;;22.08;65.64;99573.34;1082827;39;20532;-77
2023/09/13 02:12:31;;;;;;;;;;;;;;;22.00;66.12;99577.19;1081896;54;20031;-79
2023/09/13 02:13:32;;;;;;;;;;;;;;;22.00;66.08;99570.94;1081732;54;19951;-78
2023/09/13 02:14:35;;;;;;;;;;;;;;;21.93;65.94;99577.28;1081752;54;19950;-78
2023/09/13 02:15:41;;;;;;;;;;;;;;;21.88;66.41;99574.44;1081862;47;19975;-78
2023/09/13 02:16:44;;;;;;;;;;;;;;;21.89;65.77;99575.25;1082818;39;20783;-80
2023/09/13 02:17:45;;;;;;;;;;;;;;;21.80;65.64;99582.94;1081718;47;20042;-78
2023/09/13 02:18:48;;;;;;;;;;;;;;;21.82;65.36;99575.38;1081780;47;19953;-78
2023/09/13 02:19:49;;;;;;;;;;;;;;;21.86;65.22;99573.84;1081714;47;19951;-78
2023/09/13 02:20:52;;;;;;;;;;;;;;;21.87;65.07;99577.41;1081861;47;19958;-78
2023/09/13 02:21:52;;;;;;;;;;;;;;;21.88;64.85;99585.31;1081976;47;19946;-79
2023/09/13 02:22:53;;;;;;;;;;;;;;;21.86;64.38;99582.00;1082674;54;19955;-80
2023/09/13 02:23:57;;;;;;;;;;;;;;;21.80;64.53;99580.22;1082358;47;19947;-78
2023/09/13 02:24:57;;;;;;;;;;;;;;;21.85;64.24;99585.78;1082449;47;19950;-79
2023/09/13 02:26:01;;;;;;;;;;;;;;;21.75;64.56;99583.63;1082565;54;19975;-79
2023/09/13 02:27:01;;;;;;;;;;;;;;;21.71;64.25;99578.88;1082340;47;19946;-79
2023/09/13 02:28:05;;;;;;;;;;;;;;;21.74;64.49;99578.41;1082666;39;20381;-79
2023/09/13 02:29:05;;;;;;;;;;;;;;;21.73;64.01;99577.56;1082406;47;19950;-79
2023/09/13 02:30:09;;;;;;;;;;;;;;;21.80;63.70;99586.47;1082321;54;20420;-79
2023/09/13 02:31:13;;;;;;;;;;;;;;;21.87;63.97;99577.41;1082352;47;19947;-78
2023/09/13 02:32:16;;;;;;;;;;;;;;;21.77;64.12;99584.19;1082252;47;19947;-79
2023/09/13 02:33:17;;;;;;;;;;;;;;;21.75;64.00;99574.63;1082585;47;19946;-79
2023/09/13 02:34:17;;;;;;;;;;;;;;;21.72;64.29;99588.69;1082323;47;19958;-78
2023/09/13 02:35:21;;;;;;;;;;;;;;;21.71;64.23;99597.91;1082425;47;20483;-78
2023/09/13 02:36:22;;;;;;;;;;;;;;;21.67;64.33;99597.53;1082078;54;19971;-79
2023/09/13 02:37:22;;;;;;;;;;;;;;;21.76;63.98;99581.72;1082218;47;19946;-79
2023/09/13 02:38:26;;;;;;;;;;;;;;;21.73;63.84;99587.59;1082300;47;19946;-79
2023/09/13 02:39:30;;;;;;;;;;;;;;;21.78;63.79;99585.88;1082318;47;19972;-79
2023/09/13 02:40:33;;;;;;;;;;;;;;;21.65;64.23;99583.34;1082123;54;19946;-79
2023/09/13 02:41:33;;;;;;;;;;;;;;;21.72;64.08;99581.34;1082008;54;19947;-78
2023/09/13 02:42:37;;;;;;;;;;;;;;;21.78;63.70;99576.88;1082084;54;19956;-79
2023/09/13 02:43:39;;;;;;;;;;;;;;;21.74;63.77;99578.41;1082104;47;19958;-78
2023/09/13 02:44:42;;;;;;;;;;;;;;;21.68;64.29;99582.03;1082018;54;19946;-79
2023/09/13 02:45:44;;;;;;;;;;;;;;;21.58;64.43;99585.28;1083053;54;19946;-79
2023/09/13 02:46:50;;;;;;;;;;;;;;;21.63;64.52;99586.25;1082361;54;19953;-79
2023/09/13 02:47:50;;;;;;;;;;;;;;;21.58;64.54;99580.69;1082262;47;20490;-79
2023/09/13 02:48:54;;;;;;;;;;;;;;;21.57;64.36;99587.16;1082006;47;19950;-78
2023/09/13 02:49:54;;;;;;;;;;;;;;;21.50;64.55;99583.69;1082197;54;20097;-79
2023/09/13 02:50:55;;;;;;;;;;;;;;;21.50;64.57;99589.13;1082176;47;19954;-78
2023/09/13 02:51:58;;;;;;;;;;;;;;;21.47;64.84;99589.59;1081993;47;19946;-78
2023/09/13 02:52:59;;;;;;;;;;;;;;;21.47;64.51;99595.88;1082490;46;19946;-78
2023/09/13 02:53:59;;;;;;;;;;;;;;;21.44;64.95;99600.94;1082358;47;19954;-78
2023/09/13 02:55:05;;;;;;;;;;;;;;;21.32;65.18;99593.53;1082117;47;19951;-79
2023/09/13 02:56:06;;;;;;;;;;;;;;;21.33;64.95;99599.78;1082774;54;19958;-78
2023/09/13 02:57:10;;;;;;;;;;;;;;;21.40;64.99;99605.16;1082960;54;19947;-79
2023/09/13 02:58:11;;;;;;;;;;;;;;;21.38;65.07;99601.81;1082243;47;19954;-79
2023/09/13 02:59:12;;;;;;;;;;;;;;;21.38;64.95;99596.38;1082164;47;19938;-79
2023/09/13 03:00:16;;;;;;;;;;;;;;;21.34;65.04;99602.28;1082122;47;19947;-79
2023/09/13 03:01:19;;;;;;;;;;;;;;;21.35;64.97;99598.50;1082415;46;19951;-78
2023/09/13 03:02:25;;;;;;;;;;;;;;;21.33;64.96;99600.63;1082620;54;20462;-79
2023/09/13 03:03:32;;;;;;;;;;;;;;;21.37;64.73;99605.59;1082679;54;19946;-78
2023/09/13 03:04:35;;;;;;;;;;;;;;;21.35;64.74;99593.06;1082806;47;19950;-79
2023/09/13 03:05:36;;;;;;;;;;;;;;;21.47;64.31;99595.03;1082801;47;19951;-78
2023/09/13 03:06:41;;;;;;;;;;;;;;;21.37;64.78;99606.44;1082212;47;19958;-78
2023/09/13 03:07:42;;;;;;;;;;;;;;;21.27;64.66;99604.25;1081926;47;19950;-78
2023/09/13 03:08:45;;;;;;;;;;;;;;;21.16;64.83;99603.09;1082165;54;19946;-78
2023/09/13 03:09:46;;;;;;;;;;;;;;;21.23;65.11;99605.75;1081978;47;19946;-78
2023/09/13 03:10:49;;;;;;;;;;;;;;;21.31;64.73;99608.19;1082333;47;19951;-77
2023/09/13 03:11:50;;;;;;;;;;;;;;;21.29;64.48;99609.47;1082093;47;20487;-76
2023/09/13 03:12:53;;;;;;;;;;;;;;;21.29;64.84;99612.19;1082018;54;19951;-80
2023/09/13 03:13:54;;;;;;;;;;;;;;;21.22;64.84;99608.69;1082795;47;19938;-79
2023/09/13 03:14:57;;;;;;;;;;;;;;;21.24;64.99;99614.72;1084024;54;20000;-80
2023/09/13 03:15:58;;;;;;;;;;;;;;;21.33;64.46;99622.38;1084726;47;19950;-77
2023/09/13 03:17:02;;;;;;;;;;;;;;;21.38;64.36;99607.25;1086109;54;19943;-79
2023/09/13 03:18:05;;;;;;;;;;;;;;;21.31;64.33;99608.19;1084116;46;19970;-78
2023/09/13 03:19:09;;;;;;;;;;;;;;;21.39;64.27;99617.94;1083842;47;19974;-78
2023/09/13 03:20:10;;;;;;;;;;;;;;;21.39;63.87;99614.34;1083404;47;20035;-77
2023/09/13 03:21:14;;;;;;;;;;;;;;;21.46;63.98;99617.81;1083981;54;19946;-79
2023/09/13 03:22:14;;;;;;;;;;;;;;;21.42;64.13;99617.44;1084926;54;20506;-79
2023/09/13 03:23:18;;;;;;;;;;;;;;;21.50;63.46;99610.88;1085343;47;19950;-78
2023/09/13 03:24:18;;;;;;;;;;;;;;;21.50;63.78;99619.88;1085383;47;20052;-78
2023/09/13 03:25:21;;;;;;;;;;;;;;;21.47;63.87;99620.34;1086173;54;19946;-79
2023/09/13 03:26:23;;;;;;;;;;;;;;;21.33;64.00;99626.97;1085755;54;19950;-79
2023/09/13 03:27:26;;;;;;;;;;;;;;;21.40;64.09;99624.19;1085153;54;19958;-79
2023/09/13 03:28:26;;;;;;;;;;;;;;;21.42;63.82;99625.59;1085069;54;19946;-78
2023/09/13 03:29:36;;;;;;;;;;;;;;;21.35;63.88;99625.69;1083878;47;19950;-78
2023/09/13 03:30:36;;;;;;;;;;;;;;;21.25;64.41;99619.97;1083649;54;20065;-77
2023/09/13 03:31:38;;;;;;;;;;;;;;;21.24;64.75;99620.16;1083521;39;20411;-78
2023/09/13 03:32:41;;;;;;;;;;;;;;;21.34;64.35;99628.63;1083424;47;20509;-77
2023/09/13 03:33:45;;;;;;;;;;;;;;;21.36;63.96;99621.09;1084253;47;19978;-78
2023/09/13 03:34:48;;;;;;;;;;;;;;;21.32;64.28;99625.31;1084549;47;19977;-78
2023/09/13 03:35:52;;;;;;;;;;;;;;;21.24;64.08;99628.31;1084981;47;19958;-77
2023/09/13 03:36:55;;;;;;;;;;;;;;;21.12;64.85;99626.34;1085809;39;20592;-79
2023/09/13 03:37:55;;;;;;;;;;;;;;;20.99;65.15;99626.50;1084682;47;19947;-78
2023/09/13 03:38:56;;;;;;;;;;;;;;;20.96;65.29;99622.34;1084334;47;19951;-78
2023/09/13 03:39:59;;;;;;;;;;;;;;;21.04;65.11;99624.75;1084682;54;19957;-77
2023/09/13 03:41:01;;;;;;;;;;;;;;;21.09;64.86;99628.69;1084788;47;19951;-79
2023/09/13 03:42:05;;;;;;;;;;;;;;;21.12;64.82;99623.63;1084775;54;19946;-78
2023/09/13 03:43:06;;;;;;;;;;;;;;;21.22;64.54;99620.41;1084484;47;19954;-77
2023/09/13 03:44:11;;;;;;;;;;;;;;;21.28;64.30;99624.94;1084277;47;20062;-77
2023/09/13 03:45:12;;;;;;;;;;;;;;;21.27;64.27;99617.81;1084758;39;20438;-77
2023/09/13 03:46:15;;;;;;;;;;;;;;;21.14;64.99;99626.13;1084364;54;19966;-78
2023/09/13 03:47:17;;;;;;;;;;;;;;;21.11;65.05;99624.69;1084078;47;19950;-77
2023/09/13 03:48:20;;;;;;;;;;;;;;;21.12;64.87;99625.53;1084509;54;19990;-78
2023/09/13 03:49:26;;;;;;;;;;;;;;;21.12;64.72;99615.47;1084064;54;20050;-77
2023/09/13 03:50:26;;;;;;;;;;;;;;;20.92;65.52;99625.72;1083598;54;19973;-78
2023/09/13 03:51:28;;;;;;;;;;;;;;;20.87;65.76;99629.94;1083992;54;19950;-77
2023/09/13 03:52:31;;;;;;;;;;;;;;;20.97;65.53;99629.41;1083930;46;19946;-79
2023/09/13 03:53:32;;;;;;;;;;;;;;;20.85;65.81;99628.50;1083450;47;19950;-77
2023/09/13 03:54:35;;;;;;;;;;;;;;;20.85;66.06;99623.06;1083618;54;20810;-78
2023/09/13 03:55:36;;;;;;;;;;;;;;;20.80;66.04;99628.31;1083856;54;20105;-78
2023/09/13 03:56:39;;;;;;;;;;;;;;;20.81;66.24;99629.97;1084956;47;20289;-78
2023/09/13 03:57:40;;;;;;;;;;;;;;;20.77;66.59;99631.50;1084570;54;19950;-77
2023/09/13 03:58:43;;;;;;;;;;;;;;;20.71;66.56;99628.56;1084547;47;19962;-78
2023/09/13 03:59:44;;;;;;;;;;;;;;;20.67;66.78;99632.78;1085462;47;19950;-78
2023/09/13 04:00:47;;;;;;;;;;;;;;;20.59;67.01;99633.06;1085076;47;19975;-78
2023/09/13 04:01:48;;;;;;;;;;;;;;;20.69;66.91;99636.09;1085505;47;19970;-78
2023/09/13 04:02:52;;;;;;;;;;;;;;;20.65;67.08;99632.19;1085636;47;19970;-77
2023/09/13 04:03:52;;;;;;;;;;;;;;;20.73;66.79;99634.66;1085355;47;20518;-78
2023/09/13 04:04:58;;;;;;;;;;;;;;;20.76;66.56;99630.66;1085620;47;19957;-78
2023/09/13 04:05:59;;;;;;;;;;;;;;;20.71;66.61;99623.13;1085470;54;19947;-78
2023/09/13 04:07:02;;;;;;;;;;;;;;;20.65;67.18;99629.47;1085352;47;19970;-78
2023/09/13 04:08:05;;;;;;;;;;;;;;;20.73;66.71;99629.22;1085883;54;19959;-78
2023/09/13 04:09:10;;;;;;;;;;;;;;;20.63;67.32;99623.41;1085194;47;19951;-78
2023/09/13 04:10:11;;;;;;;;;;;;;;;20.61;67.46;99611.94;1085434;49;19959;-78
2023/09/13 04:11:14;;;;;;;;;;;;;;;20.52;67.17;99611.41;1086092;47;19950;-78
2023/09/13 04:12:16;;;;;;;;;;;;;;;20.48;67.81;99603.91;1085674;47;19947;-78
2023/09/13 04:13:19;;;;;;;;;;;;;;;20.53;67.89;99613.06;1085872;54;19950;-78
2023/09/13 04:14:19;;;;;;;;;;;;;;;20.54;67.45;99614.72;1085152;54;19951;-79
2023/09/13 04:15:23;;;;;;;;;;;;;;;20.51;67.86;99608.88;1085343;47;20775;-79
2023/09/13 04:16:23;;;;;;;;;;;;;;;20.55;67.75;99613.66;1086272;54;19973;-78
2023/09/13 04:17:27;;;;;;;;;;;;;;;20.61;67.43;99605.69;1085010;54;19974;-78
2023/09/13 04:18:28;;;;;;;;;;;;;;;20.53;67.68;99610.34;1084905;54;20053;-78
2023/09/13 04:19:31;;;;;;;;;;;;;;;20.48;68.22;99614.78;1085679;54;19957;-78
2023/09/13 04:20:34;;;;;;;;;;;;;;;20.60;67.34;99610.28;1085780;54;19950;-79
2023/09/13 04:21:38;;;;;;;;;;;;;;;20.66;67.42;99614.84;1085977;54;19950;-79
2023/09/13 04:22:39;;;;;;;;;;;;;;;20.62;67.69;99610.88;1086386;54;20010;-78
2023/09/13 04:23:42;;;;;;;;;;;;;;;20.58;67.65;99615.13;1085756;54;20019;-79
2023/09/13 04:24:43;;;;;;;;;;;;;;;20.59;67.73;99619.50;1085731;47;19950;-79
2023/09/13 04:25:46;;;;;;;;;;;;;;;20.56;68.03;99618.03;1085637;47;19953;-79
2023/09/13 04:26:48;;;;;;;;;;;;;;;20.52;67.94;99626.84;1085301;47;19971;-78
2023/09/13 04:27:51;;;;;;;;;;;;;;;20.47;68.19;99629.41;1084604;47;20365;-79
2023/09/13 04:28:52;;;;;;;;;;;;;;;20.43;68.60;99631.72;1084618;54;19974;-78
2023/09/13 04:29:56;;;;;;;;;;;;;;;20.35;68.73;99635.53;1085691;39;20486;-79
2023/09/13 04:30:58;;;;;;;;;;;;;;;20.41;68.44;99633.81;1084980;54;19946;-78
2023/09/13 04:32:01;;;;;;;;;;;;;;;20.47;68.35;99629.41;1084616;47;19957;-78
2023/09/13 04:33:02;;;;;;;;;;;;;;;20.41;68.80;99636.53;1084103;47;19938;-78
2023/09/13 04:34:06;;;;;;;;;;;;;;;20.41;68.86;99641.97;1084920;47;19981;-78
2023/09/13 04:35:07;;;;;;;;;;;;;;;20.39;68.51;99636.78;1085010;47;19953;-78
2023/09/13 04:36:10;;;;;;;;;;;;;;;20.34;68.99;99647.44;1084679;54;19991;-78
2023/09/13 04:37:15;;;;;;;;;;;;;;;20.45;68.45;99655.94;1084767;47;19974;-77
2023/09/13 04:38:15;;;;;;;;;;;;;;;20.50;68.25;99645.25;1085031;54;19947;-79
2023/09/13 04:39:19;;;;;;;;;;;;;;;20.42;69.05;99660.75;1085085;54;20428;-79
2023/09/13 04:40:20;;;;;;;;;;;;;;;20.47;68.32;99657.38;1084905;54;20005;-79
2023/09/13 04:41:23;;;;;;;;;;;;;;;20.48;68.38;99663.66;1084284;47;19957;-78
2023/09/13 04:42:24;;;;;;;;;;;;;;;20.44;68.74;99660.53;1084946;54;19950;-78
2023/09/13 04:43:27;;;;;;;;;;;;;;;20.38;68.93;99664.97;1084877;39;20659;-78
2023/09/13 04:44:27;;;;;;;;;;;;;;;20.42;68.98;99670.78;1084973;54;19971;-78
2023/09/13 04:45:31;;;;;;;;;;;;;;;20.41;68.52;99669.94;1083990;54;19947;-78
2023/09/13 04:46:31;;;;;;;;;;;;;;;20.35;69.00;99668.09;1083931;47;19950;-79
2023/09/13 04:47:35;;;;;;;;;;;;;;;20.37;68.83;99668.72;1083269;54;19974;-78
2023/09/13 04:48:35;;;;;;;;;;;;;;;20.44;69.03;99675.97;1084321;54;19959;-77
2023/09/13 04:49:39;;;;;;;;;;;;;;;20.47;68.49;99670.13;1084770;54;19947;-78
2023/09/13 04:50:39;;;;;;;;;;;;;;;20.50;68.66;99677.84;1084831;47;20902;-78
2023/09/13 04:51:45;;;;;;;;;;;;;;;20.42;68.93;99674.31;1083851;47;19962;-78
2023/09/13 04:52:46;;;;;;;;;;;;;;;20.56;68.32;99676.94;1085387;47;19970;-79
2023/09/13 04:53:49;;;;;;;;;;;;;;;20.58;68.37;99683.00;1085073;54;19951;-78
2023/09/13 04:54:50;;;;;;;;;;;;;;;20.51;68.47;99679.47;1084352;54;20600;-78
2023/09/13 04:55:53;;;;;;;;;;;;;;;20.58;68.36;99683.00;1084817;54;19946;-78
2023/09/13 04:56:54;;;;;;;;;;;;;;;20.61;68.19;99690.69;1084600;54;19957;-79
2023/09/13 04:57:58;;;;;;;;;;;;;;;20.59;67.92;99687.38;1083975;47;20553;-79
2023/09/13 04:58:59;;;;;;;;;;;;;;;20.62;67.94;99686.91;1084864;47;20003;-78
2023/09/13 05:00:06;;;;;;;;;;;;;;;20.50;68.29;99684.09;1083819;54;19957;-79
2023/09/13 05:01:06;;;;;;;;;;;;;;;20.56;68.38;99685.09;1083759;47;19957;-79
2023/09/13 05:02:09;;;;;;;;;;;;;;;20.50;68.40;99683.28;1084383;53;20014;-78
2023/09/13 05:03:10;;;;;;;;;;;;;;;20.41;68.94;99680.78;1084712;47;19950;-79
2023/09/13 05:04:13;;;;;;;;;;;;;;;20.31;69.39;99679.63;1084039;54;20705;-78
2023/09/13 05:05:14;;;;;;;;;;;;;;;20.34;69.06;99687.31;1083750;39;20758;-78
2023/09/13 05:06:18;;;;;;;;;;;;;;;20.34;69.00;99690.03;1083560;54;19958;-78
2023/09/13 05:07:21;;;;;;;;;;;;;;;20.37;69.19;99685.00;1085606;54;19950;-78
2023/09/13 05:08:24;;;;;;;;;;;;;;;20.39;68.77;99682.91;1086064;47;19943;-79
2023/09/13 05:09:25;;;;;;;;;;;;;;;20.38;68.86;99683.09;1084504;47;19962;-78
2023/09/13 05:10:32;;;;;;;;;;;;;;;20.48;68.57;99679.94;1084838;54;19950;-79
2023/09/13 05:11:32;;;;;;;;;;;;;;;20.46;68.78;99684.75;1085281;54;20224;-79
2023/09/13 05:12:36;;;;;;;;;;;;;;;20.50;68.31;99685.97;1084437;54;19955;-79
2023/09/13 05:13:37;;;;;;;;;;;;;;;20.39;69.06;99690.22;1084844;54;20101;-80
2023/09/13 05:14:42;;;;;;;;;;;;;;;20.33;69.29;99700.03;1084349;54;20027;-79
2023/09/13 05:15:43;;;;;;;;;;;;;;;20.27;69.46;99695.50;1083781;54;19959;-79
2023/09/13 05:16:46;;;;;;;;;;;;;;;20.24;69.44;99695.91;1084229;47;19953;-79
2023/09/13 05:17:47;;;;;;;;;;;;;;;20.22;69.67;99693.44;1084109;47;19975;-79
2023/09/13 05:18:50;;;;;;;;;;;;;;;20.26;69.88;99701.97;1085262;54;19971;-79
2023/09/13 05:19:51;;;;;;;;;;;;;;;20.27;69.84;99696.31;1086035;54;19981;-79
2023/09/13 05:20:54;;;;;;;;;;;;;;;20.35;69.85;99689.81;1084809;54;19951;-78
2023/09/13 05:21:55;;;;;;;;;;;;;;;20.43;69.39;99691.44;1085631;54;19998;-79
2023/09/13 05:23:02;;;;;;;;;;;;;;;20.27;69.93;99692.78;1084649;46;19950;-78
2023/09/13 05:24:06;;;;;;;;;;;;;;;20.27;69.66;99690.88;1084602;47;19951;-81
2023/09/13 05:25:15;;;;;;;;;;;;;;;20.20;70.35;99686.56;1085482;54;20073;-81
2023/09/13 05:26:15;;;;;;;;;;;;;;;20.25;69.95;99698.44;1084629;54;20475;-80
2023/09/13 05:27:19;;;;;;;;;;;;;;;20.31;69.71;99698.59;1085214;54;21427;-79
2023/09/13 05:28:20;;;;;;;;;;;;;;;20.25;69.67;99703.03;1086765;46;19942;-80